Time;durP1;ratioP1;P1;durP2;ratioP2;P2;SDS_P1;SDS_P2;PMS_P1;PMS_P2;Temp;Humidity;BMP_temperature;BMP_pressure;BME280_temperature;BME280_humidity;BME280_pressure;Samples;Min_cycle;Max_cycle;Signal;HPM_P1;HPM_P2
2023/08/28 00:00:38;;;;;;;10.95;5.60;;;;;;;24.16;84.25;99947.59;5030868;28;20065;-74
2023/08/28 00:03:04;;;;;;;15.30;5.90;;;;;;;24.52;83.59;99990.56;5014035;28;20037;-77
2023/08/28 00:05:32;;;;;;;11.15;5.72;;;;;;;24.16;83.18;99981.88;5030807;28;20041;-75
2023/08/28 00:07:58;;;;;;;11.93;6.05;;;;;;;24.17;83.35;99997.66;5030642;28;20021;-76
2023/08/28 00:10:24;;;;;;;9.55;6.07;;;;;;;24.17;83.26;100007.34;5030868;28;20048;-74
2023/08/28 00:12:50;;;;;;;11.68;5.90;;;;;;;23.83;84.16;99992.41;5014088;28;20528;-77
2023/08/28 00:15:16;;;;;;;9.88;5.60;;;;;;;23.64;84.64;99994.59;5030460;28;20132;-77
2023/08/28 00:17:41;;;;;;;9.40;6.47;;;;;;;23.53;85.78;99994.91;5030394;28;20643;-80
2023/08/28 00:20:10;;;;;;;12.40;6.00;;;;;;;23.35;86.13;99991.81;5013587;28;20052;-77
2023/08/28 00:22:36;;;;;;;16.52;6.53;;;;;;;22.93;87.11;99955.00;5013737;28;20116;-77
2023/08/28 00:25:03;;;;;;;11.98;6.13;;;;;;;22.84;88.25;99976.22;5030608;28;20485;-77
2023/08/28 00:27:29;;;;;;;13.45;7.10;;;;;;;22.77;88.05;99986.88;5013415;28;20771;-77
2023/08/28 00:29:55;;;;;;;28.65;19.98;;;;;;;22.31;89.57;99995.69;5030198;28;20116;-74
2023/08/28 00:32:20;;;;;;;60.33;37.92;;;;;;;22.24;89.74;99973.91;5047824;28;20396;-76
2023/08/28 00:34:45;;;;;;;92.97;52.42;;;;;;;22.24;89.86;99967.75;5051151;28;20164;-75
2023/08/28 00:37:12;;;;;;;100.35;58.58;;;;;;;22.04;90.34;99962.88;5034774;28;20060;-75
2023/08/28 00:39:38;;;;;;;92.30;56.22;;;;;;;21.85;91.65;99973.72;5034673;28;20049;-76
2023/08/28 00:42:03;;;;;;;96.60;58.63;;;;;;;21.81;92.84;99991.31;5052341;28;20056;-75
2023/08/28 00:44:29;;;;;;;95.88;57.58;;;;;;;21.85;93.04;99984.25;5052844;28;20127;-75
2023/08/28 00:46:55;;;;;;;100.45;58.85;;;;;;;21.81;92.68;99962.41;5051913;28;20024;-76
2023/08/28 00:49:21;;;;;;;124.05;77.70;;;;;;;22.14;91.33;99980.22;5050261;28;20484;-75
2023/08/28 00:51:47;;;;;;;86.18;52.97;;;;;;;22.08;90.67;99917.25;5051947;28;20028;-76
2023/08/28 00:54:12;;;;;;;94.90;57.92;;;;;;;22.74;89.29;99979.06;5051365;28;20446;-76
2023/08/28 00:56:39;;;;;;;54.97;33.15;;;;;;;23.00;88.10;99980.25;5050718;28;20021;-75
2023/08/28 00:59:05;;;;;;;77.53;46.45;;;;;;;23.14;86.64;99974.69;5034645;28;20067;-80
2023/08/28 01:01:30;;;;;;;69.00;42.25;;;;;;;23.03;86.94;99972.31;5052155;28;20096;-75
2023/08/28 01:03:55;;;;;;;38.17;20.15;;;;;;;23.02;87.21;99970.56;5051856;28;20113;-77
2023/08/28 01:06:42;;;;;;;23.02;12.77;;;;;;;23.04;87.09;99981.94;5052077;28;20083;-76
2023/08/28 01:09:16;;;;;;;22.60;11.13;;;;;;;22.85;86.81;99946.38;5050917;28;20033;-76
2023/08/28 01:12:00;;;;;;;17.10;8.93;;;;;;;22.98;87.12;99987.34;5052148;28;20021;-75
2023/08/28 01:14:28;;;;;;;17.52;8.40;;;;;;;22.56;86.81;99908.44;5051983;28;20468;-76
2023/08/28 01:17:03;;;;;;;13.73;7.63;;;;;;;22.76;86.77;99961.47;5033855;28;20021;-76
2023/08/28 01:19:33;;;;;;;21.27;6.82;;;;;;;22.89;87.69;99985.78;5033956;28;20029;-75
2023/08/28 01:22:21;;;;;;;12.40;6.45;;;;;;;22.48;88.93;99991.88;5050698;28;20021;-80
2023/08/28 01:24:51;;;;;;;11.98;6.68;;;;;;;22.10;91.10;99979.41;5039805;28;20032;-79
2023/08/28 01:27:17;;;;;;;;;;;;;;;22.19;91.47;99982.78;5051747;28;20496;-80
2023/08/28 01:29:42;;;;;;;27.08;8.23;;;;;;;22.20;90.75;99974.00;5050510;28;19917;-83
2023/08/28 01:32:08;;;;;;;22.55;7.22;;;;;;;22.02;91.90;99981.31;5051283;28;20107;-80
2023/08/28 01:34:34;;;;;;;24.17;7.75;;;;;;;21.84;92.50;99981.66;5050427;28;20082;-81
2023/08/28 01:37:12;;;;;;;34.17;8.52;;;;;;;21.90;92.81;99979.78;5050945;28;20025;-77
2023/08/28 01:39:43;;;;;;;36.15;8.30;;;;;;;21.42;93.36;99919.25;5033987;28;20033;-76
2023/08/28 01:42:09;;;;;;;25.77;7.35;;;;;;;21.70;94.29;99979.25;5050376;28;20454;-75
2023/08/28 01:44:36;;;;;;;29.83;7.60;;;;;;;21.64;94.07;99985.47;5051607;28;20408;-75
2023/08/28 01:47:03;;;;;;;21.95;6.50;;;;;;;21.47;94.12;99968.19;5051739;28;20117;-78
2023/08/28 01:49:31;;;;;;;13.95;5.90;;;;;;;21.12;94.81;99919.75;5033461;28;20036;-79
2023/08/28 01:51:57;;;;;;;16.27;6.55;;;;;;;20.95;95.55;99911.25;5050446;28;20044;-78
2023/08/28 01:54:23;;;;;;;17.50;6.43;;;;;;;21.22;95.83;99940.59;5051686;28;20029;-77
2023/08/28 01:56:50;;;;;;;20.35;6.35;;;;;;;21.44;94.94;99960.34;5051434;28;20021;-83
2023/08/28 01:59:15;;;;;;;16.65;6.88;;;;;;;21.76;94.54;99969.50;5051149;28;20061;-81
2023/08/28 02:01:40;;;;;;;16.52;8.40;;;;;;;21.79;92.86;99964.22;5050003;28;20197;-79
2023/08/28 02:04:06;;;;;;;16.15;6.20;;;;;;;21.55;92.71;99954.09;5049703;28;20032;-77
2023/08/28 02:06:32;;;;;;;20.23;7.65;;;;;;;21.04;93.53;99879.63;5051504;28;20028;-77
2023/08/28 02:08:57;;;;;;;19.15;6.35;;;;;;;21.37;94.14;99939.47;5051592;28;20104;-76
2023/08/28 02:11:23;;;;;;;16.85;6.60;;;;;;;21.05;94.23;99891.84;5051207;28;20033;-76
2023/08/28 02:13:51;;;;;;;14.52;6.63;;;;;;;21.36;93.99;99950.88;5050491;28;20029;-76
2023/08/28 02:16:17;;;;;;;14.85;6.32;;;;;;;21.57;93.02;99936.56;5050880;28;20025;-76
2023/08/28 02:18:43;;;;;;;15.88;6.05;;;;;;;21.76;92.57;99937.13;5032998;28;20052;-79
2023/08/28 02:21:08;;;;;;;11.73;5.82;;;;;;;21.76;91.69;99926.63;5050926;28;20064;-79
2023/08/28 02:23:34;;;;;;;13.48;5.78;;;;;;;21.61;92.95;99947.00;5051076;28;20036;-80
2023/08/28 02:26:00;;;;;;;11.90;5.93;;;;;;;21.46;94.40;99942.81;5051228;28;20443;-77
2023/08/28 02:28:26;;;;;;;12.77;5.60;;;;;;;21.37;95.08;99949.97;5050763;28;20396;-79
2023/08/28 02:30:51;;;;;;;11.80;5.40;;;;;;;21.38;94.45;99946.47;5051031;28;20043;-76
2023/08/28 02:33:17;;;;;;;11.95;5.22;;;;;;;21.62;93.69;99960.97;5051042;28;20400;-77
2023/08/28 02:35:43;;;;;;;10.75;5.07;;;;;;;21.40;92.33;99911.41;5050920;28;20404;-76
2023/08/28 02:38:10;;;;;;;16.80;6.32;;;;;;;21.85;89.35;99967.63;5050768;28;20037;-75
2023/08/28 02:40:37;;;;;;;20.45;5.95;;;;;;;21.81;86.91;99964.19;5050823;28;20036;-80
2023/08/28 02:43:08;;;;;;;15.88;6.22;;;;;;;21.74;87.52;99962.53;5050400;28;20575;-76
2023/08/28 02:45:39;;;;;;;14.00;7.45;;;;;;;21.81;87.16;99970.28;5050328;28;20022;-76
2023/08/28 02:48:05;;;;;;;14.68;7.90;;;;;;;21.64;87.31;99948.69;5050156;28;20070;-77
2023/08/28 02:50:32;;;;;;;21.35;9.05;;;;;;;20.75;86.50;99790.84;5050263;28;20029;-77
2023/08/28 02:52:57;;;;;;;12.95;8.48;;;;;;;21.79;86.24;99965.94;5050848;28;20053;-76
2023/08/28 02:55:23;;;;;;;18.95;8.98;;;;;;;21.83;85.55;99969.41;5032583;28;20060;-78
2023/08/28 02:57:49;;;;;;;13.90;7.55;;;;;;;21.88;84.64;99967.56;5050404;28;20132;-78
2023/08/28 03:00:15;;;;;;;17.20;7.68;;;;;;;21.92;84.31;99963.97;5050133;28;20032;-74
2023/08/28 03:02:40;;;;;;;14.25;7.57;;;;;;;21.52;84.84;99902.47;5032401;28;20106;-76
2023/08/28 03:05:06;;;;;;;10.48;6.95;;;;;;;21.23;84.93;99868.81;5050419;28;20452;-76
2023/08/28 03:07:32;;;;;;;15.50;7.00;;;;;;;21.61;85.44;99959.28;5050215;28;20029;-78
2023/08/28 03:09:57;;;;;;;17.23;7.65;;;;;;;21.56;85.84;99956.72;5050436;28;20086;-78
2023/08/28 03:12:23;;;;;;;15.68;7.85;;;;;;;21.62;85.96;99968.84;5050361;28;20037;-78
2023/08/28 03:14:48;;;;;;;13.13;7.20;;;;;;;21.63;86.16;99970.59;5050116;28;20468;-74
2023/08/28 03:17:14;;;;;;;16.35;9.18;;;;;;;21.26;86.41;99916.00;5049857;28;20033;-75
2023/08/28 03:19:39;;;;;;;17.00;8.88;;;;;;;21.40;87.11;99966.56;5032149;28;20025;-77
2023/08/28 03:22:04;;;;;;;18.05;9.77;;;;;;;21.35;87.21;99973.66;5050070;28;20029;-79
2023/08/28 03:24:30;;;;;;;18.42;9.68;;;;;;;21.40;86.79;99974.44;5031531;28;20028;-77
2023/08/28 03:26:56;;;;;;;16.80;9.38;;;;;;;21.21;86.55;99950.22;5050024;28;20039;-77
2023/08/28 03:29:21;;;;;;;16.20;9.70;;;;;;;21.34;86.95;99975.38;5049236;28;20029;-77
2023/08/28 03:31:47;;;;;;;17.33;9.50;;;;;;;21.26;86.59;99968.50;5049825;28;20060;-80
2023/08/28 03:34:12;;;;;;;18.10;9.82;;;;;;;21.29;85.09;99968.50;5050305;28;20468;-77
2023/08/28 03:36:37;;;;;;;21.42;9.95;;;;;;;21.40;84.86;99963.94;5050134;28;20041;-78
2023/08/28 03:39:03;;;;;;;18.30;9.30;;;;;;;21.49;85.04;99953.25;5032202;28;20032;-76
2023/08/28 03:41:28;;;;;;;15.65;8.90;;;;;;;21.36;87.27;99945.63;5050153;28;20400;-77
2023/08/28 03:43:54;;;;;;;16.50;9.00;;;;;;;20.33;91.96;99956.63;5048999;28;20110;-80
2023/08/28 03:46:19;;;;;;;17.83;9.45;;;;;;;20.02;93.13;99977.91;5031733;28;20032;-77
2023/08/28 03:48:45;;;;;;;13.68;8.10;;;;;;;20.37;91.75;99971.41;5031904;28;20032;-79
2023/08/28 03:51:11;;;;;;;15.20;8.93;;;;;;;20.42;91.10;99977.47;5049118;28;20028;-83
2023/08/28 03:53:37;;;;;;;23.77;10.10;;;;;;;19.50;94.59;99913.72;5000635;28;20596;-82
2023/08/28 03:56:03;;;;;;;18.95;9.25;;;;;;;19.99;93.84;99949.97;4997557;28;20034;-76
2023/08/28 03:58:29;;;;;;;16.88;9.23;;;;;;;20.23;92.89;99970.72;5003853;28;20099;-79
2023/08/28 04:00:55;;;;;;;14.20;9.10;;;;;;;20.43;91.91;99968.72;5007611;28;20038;-79
2023/08/28 04:03:20;;;;;;;15.98;9.32;;;;;;;20.02;92.15;99942.06;4991042;28;20042;-79
2023/08/28 04:05:48;;;;;;;14.23;8.70;;;;;;;20.25;92.35;99968.91;5007634;28;20598;-76
2023/08/28 04:08:14;;;;;;;15.65;8.82;;;;;;;20.46;92.04;99984.44;5007005;28;20571;-76
2023/08/28 04:10:39;;;;;;;19.55;8.95;;;;;;;20.54;90.26;99979.09;5003713;28;20033;-77
2023/08/28 04:13:05;;;;;;;15.75;9.20;;;;;;;20.68;88.90;99987.63;5007429;28;20512;-78
2023/08/28 04:15:31;;;;;;;18.15;9.23;;;;;;;20.76;88.75;99990.22;5006669;28;20573;-78
2023/08/28 04:17:59;;;;;;;19.65;9.05;;;;;;;20.73;88.50;99985.00;4971598;28;20034;-77
2023/08/28 04:20:25;;;;;;;14.43;9.25;;;;;;;20.43;88.63;99913.66;4988008;28;20514;-77
2023/08/28 04:22:50;;;;;;;18.65;9.63;;;;;;;21.03;88.24;99993.34;4971733;28;20092;-78
2023/08/28 04:25:15;;;;;;;15.10;8.90;;;;;;;21.01;87.91;99990.75;5020202;28;20078;-79
2023/08/28 04:27:41;;;;;;;16.05;8.63;;;;;;;21.09;88.31;100005.53;5028248;28;20445;-80
2023/08/28 04:30:08;;;;;;;20.52;8.70;;;;;;;21.10;87.36;99994.16;5029126;28;20135;-78
2023/08/28 04:32:34;;;;;;;12.18;8.00;;;;;;;21.08;86.55;99985.41;5029896;28;20103;-79
2023/08/28 04:35:00;;;;;;;15.32;8.35;;;;;;;21.18;86.39;99992.25;5028437;28;20033;-79
2023/08/28 04:37:26;;;;;;;16.00;8.50;;;;;;;21.06;86.05;99966.19;5033027;28;20039;-79
2023/08/28 04:39:52;;;;;;;17.13;8.60;;;;;;;21.33;86.80;100001.66;5032011;28;20029;-75
2023/08/28 04:42:18;;;;;;;15.23;7.72;;;;;;;21.15;87.31;99998.44;5032096;28;20029;-76
2023/08/28 04:44:43;;;;;;;16.85;9.30;;;;;;;20.63;87.87;99930.91;5032950;28;20465;-79
2023/08/28 04:47:09;;;;;;;12.15;8.07;;;;;;;21.03;88.05;99988.09;5033569;28;20021;-79
2023/08/28 04:49:34;;;;;;;13.88;8.15;;;;;;;21.23;88.29;100002.72;5032943;28;20512;-78
2023/08/28 04:52:00;;;;;;;13.35;8.85;;;;;;;21.37;87.60;100007.75;5032172;28;20060;-80
2023/08/28 04:54:25;;;;;;;16.55;8.90;;;;;;;21.50;87.30;99994.41;5033630;28;20037;-79
2023/08/28 04:56:51;;;;;;;19.13;8.93;;;;;;;21.65;86.72;99995.94;5071370;28;20036;-79
2023/08/28 04:59:18;;;;;;;14.25;8.85;;;;;;;21.77;86.81;100013.28;5072611;28;20033;-79
2023/08/28 05:01:45;;;;;;;21.33;9.77;;;;;;;21.53;89.37;99980.34;5054915;28;20040;-80
2023/08/28 05:04:10;;;;;;;38.40;19.45;;;;;;;21.47;89.00;99996.22;5072864;28;20032;-80
2023/08/28 05:06:37;;;;;;;41.97;22.17;;;;;;;21.40;89.41;99997.22;5069219;28;20027;-81
2023/08/28 05:09:03;;;;;;;28.77;16.42;;;;;;;21.28;90.63;100007.03;5052297;28;20021;-82
2023/08/28 05:11:29;;;;;;;29.23;15.35;;;;;;;21.25;91.13;100008.81;5029730;28;20106;-80
2023/08/28 05:13:54;;;;;;;44.30;12.98;;;;;;;21.08;92.74;99991.53;5029737;28;20041;-81
2023/08/28 05:16:20;;;;;;;22.33;12.48;;;;;;;20.96;93.65;99989.94;5030034;28;20463;-79
2023/08/28 05:18:45;;;;;;;25.52;12.55;;;;;;;20.96;95.46;99999.56;5029167;28;20117;-80
2023/08/28 05:21:11;;;;;;;23.55;10.65;;;;;;;21.00;96.09;99994.25;5029064;28;20044;-78
2023/08/28 05:23:37;;;;;;;14.38;9.27;;;;;;;21.17;96.18;100006.28;5029243;28;20026;-78
2023/08/28 05:26:03;;;;;;;19.17;9.85;;;;;;;21.26;95.56;100008.78;5012490;28;20037;-80
2023/08/28 05:31:50;;;;;;;17.13;9.25;;;;;;;21.07;96.57;99974.06;5136708;23;20577;-79
2023/08/28 05:34:15;;;;;;;14.93;9.10;;;;;;;21.17;97.03;99999.28;5091043;28;20035;-80
2023/08/28 05:36:41;;;;;;;16.73;9.75;;;;;;;21.22;97.24;99990.47;5091099;28;20035;-80
2023/08/28 05:39:07;;;;;;;15.30;9.98;;;;;;;21.37;97.07;99986.75;5090985;28;20058;-80
2023/08/28 05:41:32;;;;;;;20.90;8.90;;;;;;;21.57;96.94;99991.72;5090864;28;20092;-79
2023/08/28 05:43:58;;;;;;;15.35;10.15;;;;;;;21.57;96.43;99987.34;5090668;28;20077;-79
2023/08/28 05:46:23;;;;;;;18.55;11.05;;;;;;;21.59;96.65;99971.56;5072779;28;20058;-76
2023/08/28 05:48:49;;;;;;;13.48;9.65;;;;;;;21.84;96.55;99997.41;5089868;28;20099;-78
2023/08/28 05:51:14;;;;;;;16.33;9.65;;;;;;;21.83;95.70;99991.28;5090970;28;20034;-76
2023/08/28 05:53:39;;;;;;;17.50;9.82;;;;;;;22.00;95.60;100006.75;5090635;28;20039;-79
2023/08/28 05:56:05;;;;;;;15.30;9.93;;;;;;;21.97;95.93;100014.72;5090546;28;20031;-79
2023/08/28 05:58:30;;;;;;;14.80;9.57;;;;;;;21.96;96.34;100002.47;5071577;28;20107;-78
2023/08/28 06:00:56;;;;;;;21.15;9.88;;;;;;;22.17;95.59;99992.44;5085443;28;20028;-79
2023/08/28 06:03:21;;;;;;;24.02;10.80;;;;;;;22.53;95.21;100001.44;5090252;28;20020;-82
2023/08/28 06:05:47;;;;;;;25.27;9.48;;;;;;;22.63;96.47;100002.13;5090375;28;20024;-80
2023/08/28 06:08:12;;;;;;;19.77;9.90;;;;;;;22.71;96.61;99991.44;5090843;28;20376;-80
2023/08/28 06:10:40;;;;;;;14.65;8.88;;;;;;;22.85;94.67;99991.13;5090188;28;20032;-78
2023/08/28 06:13:06;;;;;;;18.85;8.95;;;;;;;22.97;94.18;99969.81;5071274;28;20032;-81
2023/08/28 06:15:32;;;;;;;14.50;8.93;;;;;;;23.20;94.41;99978.97;5090817;28;20028;-82
2023/08/28 06:17:57;;;;;;;16.38;9.85;;;;;;;23.48;94.23;100004.66;5090371;28;20028;-83
2023/08/28 06:20:22;;;;;;;16.50;8.68;;;;;;;23.62;94.08;100002.56;5072289;28;20036;-82
2023/08/28 06:22:48;;;;;;;21.17;8.77;;;;;;;23.55;94.32;99983.41;5089027;28;20104;-80
2023/08/28 06:25:13;;;;;;;26.15;9.00;;;;;;;23.15;93.92;99907.94;5072069;28;20487;-78
2023/08/28 06:27:39;;;;;;;22.85;9.45;;;;;;;23.68;93.69;99981.31;5072049;28;20445;-83
2023/08/28 06:30:05;;;;;;;27.38;9.52;;;;;;;23.68;95.38;99977.84;5090202;28;20536;-84
2023/08/28 06:32:31;;;;;;;32.10;9.85;;;;;;;23.79;94.75;100003.91;5087216;28;20020;-78
2023/08/28 06:34:57;;;;;;;21.52;9.55;;;;;;;23.77;95.16;99984.66;5090183;28;20030;-78
2023/08/28 06:37:24;;;;;;;14.60;7.95;;;;;;;24.05;93.66;100011.16;5090325;28;20035;-77
2023/08/28 06:39:51;;;;;;;17.27;8.20;;;;;;;24.24;92.36;100011.56;5047999;28;20045;-78
2023/08/28 06:42:16;;;;;;;34.50;9.20;;;;;;;24.32;93.05;100014.84;5048188;28;20044;-85
2023/08/28 06:44:42;;;;;;;29.42;9.63;;;;;;;24.37;92.79;100009.44;5031223;28;20041;-84
2023/08/28 06:47:07;;;;;;;22.70;8.20;;;;;;;24.43;92.09;100005.78;5048475;28;20036;-79
2023/08/28 06:49:33;;;;;;;33.15;8.93;;;;;;;24.25;91.60;99955.28;5047697;28;20048;-83
2023/08/28 06:51:58;;;;;;;16.77;8.10;;;;;;;24.57;91.13;99981.66;5031147;28;20025;-81
2023/08/28 06:54:24;;;;;;;26.80;8.82;;;;;;;24.73;90.63;99987.38;5031243;28;20125;-82
2023/08/28 06:56:49;;;;;;;18.33;7.55;;;;;;;24.82;90.28;99976.53;5030583;28;20033;-81
2023/08/28 06:59:15;;;;;;;20.10;7.13;;;;;;;25.00;90.07;99983.91;5047164;28;20033;-81
2023/08/28 07:01:41;;;;;;;17.52;7.35;;;;;;;25.08;91.47;99985.44;5046742;28;20040;-79
2023/08/28 07:04:08;;;;;;;18.00;8.07;;;;;;;25.13;91.35;99991.44;5023002;28;20040;-77
2023/08/28 07:06:33;;;;;;;18.85;7.80;;;;;;;24.81;92.25;99982.72;5047009;28;20052;-80
2023/08/28 07:08:59;;;;;;;22.00;8.00;;;;;;;24.81;92.80;99990.63;5007447;28;20046;-79
2023/08/28 07:11:24;;;;;;;19.83;8.50;;;;;;;24.78;93.09;99966.97;5021999;28;20029;-78
2023/08/28 07:13:50;;;;;;;36.00;8.75;;;;;;;24.69;91.78;99982.19;5026868;28;20144;-79
2023/08/28 07:16:15;;;;;;;25.05;9.45;;;;;;;24.93;95.27;99989.41;5026928;28;20188;-79
2023/08/28 07:18:43;;;;;;;27.35;10.25;;;;;;;24.84;92.49;99990.56;5000723;28;20045;-80
2023/08/28 07:21:09;;;;;;;41.10;12.18;;;;;;;24.80;93.12;99983.63;5019659;28;20065;-80
2023/08/28 07:23:36;;;;;;;31.13;11.13;;;;;;;24.89;93.18;99971.94;4987740;28;20038;-77
2023/08/28 07:26:03;;;;;;;32.78;10.88;;;;;;;25.09;89.28;99969.53;4967246;28;20097;-81
2023/08/28 07:28:32;;;;;;;35.65;11.90;;;;;;;25.21;90.33;99978.88;4984267;28;20042;-78
2023/08/28 07:30:57;;;;;;;;;;;;;;;25.28;91.15;99982.19;4983731;28;20145;-78
2023/08/28 07:33:23;;;;;;;23.77;10.07;;;;;;;25.24;88.97;99994.63;4987530;28;20016;-81
2023/08/28 07:35:48;;;;;;;28.65;10.05;;;;;;;24.95;87.87;99919.81;4971447;28;20046;-79
2023/08/28 07:38:15;;;;;;;31.45;9.93;;;;;;;25.55;87.78;99971.66;4971452;28;20092;-78
2023/08/28 07:40:41;;;;;;;22.40;8.57;;;;;;;25.85;87.02;99969.75;5001904;28;20061;-79
2023/08/28 07:43:06;;;;;;;18.20;8.35;;;;;;;25.83;84.75;99972.47;5025750;28;20504;-80
2023/08/28 07:45:32;;;;;;;23.67;8.38;;;;;;;25.77;84.09;99967.38;5024554;28;20061;-81
2023/08/28 07:47:59;;;;;;;23.50;8.55;;;;;;;25.75;83.63;99952.50;5026360;28;20117;-81
2023/08/28 07:50:28;;;;;;;24.42;8.30;;;;;;;25.88;82.53;99972.28;5026939;28;20041;-82
2023/08/28 07:52:53;;;;;;;21.35;8.05;;;;;;;25.68;86.31;99965.91;5026323;28;20069;-83
2023/08/28 07:55:19;;;;;;;24.10;8.65;;;;;;;25.77;84.18;99966.50;5076614;28;20036;-78
2023/08/28 07:57:44;;;;;;;25.02;8.75;;;;;;;26.03;81.54;99983.25;5089350;28;20028;-79
2023/08/28 08:00:13;;;;;;;19.33;7.95;;;;;;;26.35;80.15;99979.50;5070943;28;20031;-79
2023/08/28 08:02:40;;;;;;;18.23;6.75;;;;;;;26.68;81.48;99986.22;5052875;28;20040;-81
2023/08/28 08:05:06;;;;;;;17.08;5.85;;;;;;;26.76;78.43;99979.75;5071329;28;20036;-79
2023/08/28 08:07:35;;;;;;;10.93;5.40;;;;;;;26.86;72.82;99969.69;5089001;28;20043;-81
2023/08/28 08:10:00;;;;;;;13.98;5.13;;;;;;;26.99;70.75;99969.19;5071276;28;20032;-82
2023/08/28 08:12:26;;;;;;;12.27;5.70;;;;;;;27.05;70.60;99953.91;5091218;28;20036;-85
2023/08/28 08:14:52;;;;;;;13.25;6.05;;;;;;;27.26;66.81;99965.44;5093484;28;20032;-79
2023/08/28 08:17:18;;;;;;;16.42;6.40;;;;;;;27.40;64.77;99958.75;5093005;28;20185;-85
2023/08/28 08:19:43;;;;;;;18.73;6.65;;;;;;;27.39;64.25;99941.97;5075053;28;20028;-81
2023/08/28 08:22:08;;;;;;;14.02;5.45;;;;;;;27.57;66.80;99964.19;5074463;28;20032;-83
2023/08/28 08:24:34;;;;;;;17.67;6.47;;;;;;;27.59;69.57;99950.88;5075017;28;20023;-82
2023/08/28 08:27:00;;;;;;;13.07;5.38;;;;;;;27.67;67.68;99950.56;5074322;28;20020;-81
2023/08/28 08:29:25;;;;;;;11.02;5.65;;;;;;;27.65;65.48;99947.13;5093014;28;20085;-78
2023/08/28 08:31:51;;;;;;;10.90;5.70;;;;;;;27.61;64.83;99941.06;5057609;28;20427;-79
2023/08/28 08:34:18;;;;;;;9.55;5.38;;;;;;;27.66;65.17;99938.25;5092942;28;20092;-81
2023/08/28 08:36:43;;;;;;;13.23;5.70;;;;;;;27.74;63.67;99930.81;5092527;28;20036;-79
2023/08/28 08:39:09;;;;;;;13.43;4.97;;;;;;;27.57;61.15;99889.97;5091755;28;20051;-86
2023/08/28 08:41:34;;;;;;;12.40;5.55;;;;;;;27.90;63.16;99925.69;5074271;28;20047;-81
2023/08/28 08:44:00;;;;;;;11.00;5.07;;;;;;;28.07;60.75;99925.00;5074584;28;20414;-86
2023/08/28 08:46:26;;;;;;;11.23;5.15;;;;;;;28.30;59.93;99929.28;5073946;28;20028;-81
2023/08/28 08:48:56;;;;;;;12.38;4.93;;;;;;;27.96;58.55;99829.06;5074127;28;20028;-81
2023/08/28 08:51:25;;;;;;;10.57;5.78;;;;;;;28.52;59.26;99912.34;5091194;28;20196;-82
2023/08/28 08:53:59;;;;;;;14.43;5.05;;;;;;;28.58;59.23;99920.00;5092197;28;20020;-80
2023/08/28 08:56:31;;;;;;;9.93;5.07;;;;;;;28.45;61.52;99889.66;5092359;28;20024;-79
2023/08/28 08:58:57;;;;;;;12.52;5.30;;;;;;;28.62;59.96;99921.59;5073467;28;20032;-84
2023/08/28 09:01:25;;;;;;;11.77;5.00;;;;;;;28.78;58.61;99908.47;5092705;28;20039;-79
2023/08/28 09:03:51;;;;;;;9.70;5.03;;;;;;;28.82;57.29;99896.75;5092627;28;20054;-81
2023/08/28 09:06:16;;;;;;;8.38;4.43;;;;;;;29.12;56.67;99912.13;5092839;28;20058;-82
2023/08/28 09:08:42;;;;;;;12.00;4.60;;;;;;;29.12;55.89;99890.03;5074516;28;20170;-84
2023/08/28 09:11:08;;;;;;;9.48;4.78;;;;;;;29.34;52.68;99900.47;5092418;28;20012;-82
2023/08/28 09:13:43;;;;;;;9.38;4.20;;;;;;;29.36;52.40;99882.66;5073654;28;20495;-79
2023/08/28 09:16:09;;;;;;;10.75;4.60;;;;;;;29.60;48.89;99892.97;5092338;28;20028;-78
2023/08/28 09:18:35;;;;;;;9.95;4.63;;;;;;;29.55;47.71;99855.97;5074169;28;20024;-85
2023/08/28 09:21:08;;;;;;;12.80;4.07;;;;;;;29.39;47.97;99850.59;5074855;28;20124;-80
2023/08/28 09:23:34;;;;;;;8.23;4.03;;;;;;;29.69;47.94;99880.03;5074179;28;20112;-81
2023/08/28 09:26:00;;;;;;;6.28;3.83;;;;;;;29.79;46.48;99837.84;5091999;28;20032;-80
2023/08/28 09:28:26;;;;;;;9.73;4.30;;;;;;;30.23;47.07;99878.16;5073996;28;20031;-80
2023/08/28 09:30:52;;;;;;;8.38;4.43;;;;;;;30.36;45.04;99873.88;5092571;28;20423;-83
2023/08/28 09:33:17;;;;;;;7.68;4.55;;;;;;;30.34;45.74;99846.47;5074264;28;20036;-78
2023/08/28 09:35:44;;;;;;;19.77;4.80;;;;;;;30.64;44.49;99878.56;5092063;28;20030;-76
2023/08/28 09:38:10;;;;;;;11.52;4.70;;;;;;;30.75;44.49;99866.44;5074054;28;20482;-80
2023/08/28 09:40:37;;;;;;;10.30;4.72;;;;;;;30.85;46.95;99869.44;5092117;28;20046;-78
2023/08/28 09:43:13;;;;;;;8.60;4.43;;;;;;;30.97;43.36;99864.25;5074406;28;20506;-88
2023/08/28 09:45:39;;;;;;;8.02;4.07;;;;;;;31.10;43.01;99859.06;5092352;28;20023;-81
2023/08/28 09:48:06;;;;;;;7.13;4.00;;;;;;;30.91;47.02;99837.94;5073454;28;20026;-75
2023/08/28 09:50:34;;;;;;;9.15;3.95;;;;;;;31.13;43.21;99844.72;5091723;28;20026;-83
2023/08/28 09:53:13;;;;;;;11.13;4.07;;;;;;;31.18;42.94;99841.78;5073614;28;20034;-79
2023/08/28 09:55:39;;;;;;;11.20;3.90;;;;;;;31.42;42.83;99855.47;5073507;28;20552;-77
2023/08/28 09:58:10;;;;;;;9.07;4.43;;;;;;;31.59;42.66;99854.44;5091968;28;20019;-76
2023/08/28 10:00:38;;;;;;;7.30;4.10;;;;;;;31.65;41.92;99850.56;5096548;28;20035;-76
2023/08/28 10:03:05;;;;;;;10.30;4.22;;;;;;;31.67;41.70;99836.19;5092977;28;20027;-77
2023/08/28 10:05:33;;;;;;;11.40;4.30;;;;;;;31.29;42.50;99761.97;5076238;28;20506;-79
2023/08/28 10:08:02;;;;;;;9.95;4.07;;;;;;;31.75;40.50;99833.03;5094336;28;20111;-82
2023/08/28 10:10:29;;;;;;;;;;;;;;;32.03;38.91;99836.66;5076875;28;20462;-78
2023/08/28 10:12:54;;;;;;;7.15;4.55;;;;;;;31.87;39.90;99783.38;5094246;28;19908;-77
2023/08/28 10:15:21;;;;;;;6.13;3.70;;;;;;;32.34;35.21;99832.94;5078162;28;20186;-85
2023/08/28 10:17:48;;;;;;;6.90;4.38;;;;;;;32.51;37.73;99825.63;5075595;28;20028;-82
2023/08/28 10:20:15;;;;;;;6.93;3.78;;;;;;;32.55;36.26;99793.28;5090523;28;20035;-78
2023/08/28 10:22:42;;;;;;;6.65;3.63;;;;;;;32.81;34.43;99820.13;5074454;28;20016;-80
2023/08/28 10:25:08;;;;;;;6.35;3.83;;;;;;;32.71;33.67;99811.81;5090113;28;20039;-80
2023/08/28 10:27:35;;;;;;;4.32;2.38;;;;;;;31.97;32.94;99736.44;5073525;28;20032;-89
2023/08/28 10:30:03;;;;;;;3.85;2.55;;;;;;;32.18;32.33;99792.13;5090725;28;20036;-79
2023/08/28 10:32:31;;;;;;;5.20;3.00;;;;;;;32.41;32.94;99807.53;5071995;28;20044;-80
2023/08/28 10:34:58;;;;;;;4.68;2.72;;;;;;;32.06;33.01;99761.69;5088816;28;20043;-80
2023/08/28 10:37:24;;;;;;;6.75;3.40;;;;;;;32.42;33.97;99758.47;5072505;28;20042;-76
2023/08/28 10:39:50;;;;;;;7.40;3.28;;;;;;;32.95;33.93;99811.16;5088800;28;20028;-80
2023/08/28 10:42:20;;;;;;;8.07;3.33;;;;;;;33.00;32.46;99786.78;5072348;28;20483;-80
2023/08/28 10:44:47;;;;;;;6.32;3.97;;;;;;;33.00;33.90;99793.00;5081417;28;20039;-84
2023/08/28 10:47:19;;;;;;;6.22;5.35;;;;;;;33.06;32.71;99792.56;5092927;28;20043;-82
2023/08/28 10:49:45;;;;;;;5.95;2.90;;;;;;;33.12;31.83;99777.06;5072601;28;20545;-80
2023/08/28 10:52:10;;;;;;;6.07;3.03;;;;;;;33.13;33.77;99773.44;5072437;28;20024;-82
2023/08/28 10:54:43;;;;;;;4.72;3.05;;;;;;;33.03;33.83;99763.34;5072482;28;20085;-81
2023/08/28 10:57:23;;;;;;;6.95;3.45;;;;;;;32.86;33.11;99728.91;5052602;28;20462;-79
2023/08/28 10:59:49;;;;;;;6.85;2.90;;;;;;;33.41;33.92;99772.41;5083455;28;20028;-81
2023/08/28 11:02:15;;;;;;;5.78;2.72;;;;;;;33.55;33.58;99753.56;5072057;28;20032;-78
2023/08/28 11:04:41;;;;;;;7.03;3.15;;;;;;;33.90;33.14;99748.47;5071624;28;20445;-77
2023/08/28 11:07:30;;;;;;;6.40;3.40;;;;;;;34.31;32.75;99763.38;5071985;28;20066;-78
2023/08/28 11:10:16;;;;;;;6.22;3.05;;;;;;;34.31;31.44;99772.25;5074186;28;20028;-82
2023/08/28 11:12:53;;;;;;;5.68;3.30;;;;;;;34.29;31.30;99707.19;5089439;28;20085;-80
2023/08/28 11:15:41;;;;;;;4.35;2.70;;;;;;;34.31;31.04;99756.16;5071824;28;20092;-83
2023/08/28 11:18:24;;;;;;;6.72;3.33;;;;;;;34.67;31.76;99761.63;5089481;28;20512;-78
2023/08/28 11:20:54;;;;;;;11.55;3.38;;;;;;;34.75;33.17;99737.72;5089808;28;20039;-79
2023/08/28 11:23:46;;;;;;;6.13;3.20;;;;;;;34.41;31.89;99701.91;5071393;28;20059;-85
2023/08/28 11:26:17;;;;;;;6.82;2.60;;;;;;;35.04;30.63;99753.44;5070951;28;20048;-82
2023/08/28 11:28:45;;;;;;;5.05;2.90;;;;;;;34.76;31.25;99746.66;5045813;28;20120;-81